Houston, Texas
Traffic Map
Current Weather Conditions
Houston, Texas
Clear
Clear
48°
Feels Like: 42°
Wind Chill: 42° Ceiling: Unl
Heat Index: 48° Visibility: 10mi
Dew Point: 30° Wind: 15mph
Humidity: 50% Direction: 340° (NNW)
Pressure: 30.38in Gusts: 25mph
Raw Report DataKMCJ 052215Z AUTO 34013G22KT 10SM CLR 09/M01 A3038 RMK AO1
Traffic Incident Summary
Active as of:
Severity:
Category:
InformationThere was an issue retrieving the traffic information for this location. Please try a different location or try again shortly.
Advertisements
Track Severe Weather on mobile